Time;durP1;ratioP1;P1;durP2;ratioP2;P2;SDS_P1;SDS_P2;PMS_P1;PMS_P2;Temp;Humidity;BMP_temperature;BMP_pressure;BME280_temperature;BME280_humidity;BME280_pressure;Samples;Min_cycle;Max_cycle;Signal;HPM_P1;HPM_P2
2022/04/28 00:01:49;;;;;;;;;;;;;;;12.51;100.00;98789.09;5075511;28;20196;-62
2022/04/28 00:04:16;;;;;;;;;;;;;;;12.49;100.00;98779.72;5076262;28;19987;-62
2022/04/28 00:06:42;;;;;;;;;;;;;;;12.43;100.00;98778.84;5079231;27;19931;-62
2022/04/28 00:09:09;;;;;;;;;;;;;;;12.50;100.00;98784.00;5079030;28;19933;-62
2022/04/28 00:11:36;;;;;;;;;;;;;;;12.49;100.00;98783.19;5075623;27;19987;-62
2022/04/28 00:14:03;;;;;;;;;;;;;;;12.48;100.00;98786.94;5075634;28;19931;-63
2022/04/28 00:16:30;;;;;;;;;;;;;;;12.43;100.00;98786.91;5078502;28;19928;-62
2022/04/28 00:18:56;;;;;;;;;;;;;;;12.42;100.00;98771.88;5079056;28;19984;-63
2022/04/28 00:21:22;;;;;;;;;;;;;;;12.40;100.00;98785.53;5077138;27;19928;-62
2022/04/28 00:23:49;;;;;;;;;;;;;;;12.37;100.00;98787.91;5075502;28;19925;-62
2022/04/28 00:26:15;;;;;;;;;;;;;;;12.36;100.00;98780.94;5076108;28;19992;-62
2022/04/28 00:28:42;;;;;;;;;;;;;;;12.32;100.00;98777.94;5078883;28;19931;-63
2022/04/28 00:31:09;;;;;;;;;;;;;;;12.35;100.00;98779.31;5079808;28;19935;-62
2022/04/28 00:33:35;;;;;;;;;;;;;;;12.24;100.00;98781.09;5070761;28;19931;-62
2022/04/28 00:36:01;;;;;;;;;;;;;;;12.27;100.00;98779.75;5078897;28;19927;-62
2022/04/28 00:38:28;;;;;;;;;;;;;;;12.27;100.00;98780.56;5081269;28;19984;-62
2022/04/28 00:40:54;;;;;;;;;;;;;;;12.27;100.00;98780.56;5082499;28;19956;-62
2022/04/28 00:43:26;;;;;;;;;;;;;;;12.29;100.00;98778.44;5080532;28;20506;-62
2022/04/28 00:45:53;;;;;;;;;;;;;;;12.25;100.00;98782.72;5078948;28;19980;-62
2022/04/28 00:51:04;;;;;;;;;;;;;;;12.25;100.00;98782.72;5082263;28;19921;-62
2022/04/28 00:53:31;;;;;;;;;;;;;;;12.26;100.00;98783.50;5079230;28;19928;-62
2022/04/28 00:55:58;;;;;;;;;;;;;;;12.28;100.00;98784.06;5078642;28;19925;-61
2022/04/28 00:58:24;;;;;;;;;;;;;;;12.29;100.00;98777.63;5080402;28;19984;-62
2022/04/28 01:00:53;;;;;;;;;;;;;;;12.25;100.00;98782.72;5081984;28;20011;-61
2022/04/28 01:03:20;;;;;;;;;;;;;;;12.25;100.00;98773.88;5080401;28;19967;-61
2022/04/28 01:05:47;;;;;;;;;;;;;;;12.26;100.00;98775.47;5078500;28;19959;-61
2022/04/28 01:08:13;;;;;;;;;;;;;;;12.25;100.00;98776.53;5078850;28;19931;-62
2022/04/28 01:10:39;;;;;;;;;;;;;;;12.25;100.00;98771.19;5081824;28;19988;-62
2022/04/28 01:13:06;;;;;;;;;;;;;;;12.23;100.00;98767.94;5081761;28;20011;-62
2022/04/28 01:15:42;;;;;;;;;;;;;;;12.20;100.00;98771.13;5078553;28;20001;-62
2022/04/28 01:18:08;;;;;;;;;;;;;;;12.16;100.00;98762.00;5078468;28;20347;-62
2022/04/28 01:20:36;;;;;;;;;;;;;;;12.20;100.00;98779.97;5081453;28;19924;-61
2022/04/28 01:23:04;;;;;;;;;;;;;;;12.21;100.00;98775.41;5081777;28;19948;-63
2022/04/28 01:25:30;;;;;;;;;;;;;;;12.11;100.00;98776.13;5078685;28;19929;-64
2022/04/28 01:27:57;;;;;;;;;;;;;;;12.13;100.00;98773.97;5078205;28;19924;-62
2022/04/28 01:30:24;;;;;;;;;;;;;;;12.14;100.00;98775.63;5079768;28;19980;-63
2022/04/28 01:32:50;;;;;;;;;;;;;;;12.16;100.00;98765.44;5081588;28;19959;-63
2022/04/28 01:35:17;;;;;;;;;;;;;;;12.13;100.00;98779.34;5080563;28;19924;-62
2022/04/28 01:37:43;;;;;;;;;;;;;;;12.13;100.00;98773.19;5077995;28;19920;-62
2022/04/28 01:40:12;;;;;;;;;;;;;;;12.12;100.00;98771.56;5078072;28;20000;-63
2022/04/28 01:42:39;;;;;;;;;;;;;;;12.12;100.00;98771.56;5069790;28;20364;-61
2022/04/28 01:45:07;;;;;;;;;;;;;;;12.08;100.00;98771.25;5081410;28;19924;-61
2022/04/28 01:47:33;;;;;;;;;;;;;;;12.00;100.00;98770.91;5078152;28;19928;-62
2022/04/28 01:49:59;;;;;;;;;;;;;;;12.05;100.00;98774.44;5077839;28;19960;-62
2022/04/28 01:55:11;;;;;;;;;;;;;;;11.91;100.00;98774.00;5081252;28;20639;-62
2022/04/28 01:57:39;;;;;;;;;;;;;;;11.86;100.00;98778.50;5069597;28;19925;-62
2022/04/28 02:00:06;;;;;;;;;;;;;;;11.85;100.00;98772.34;5077783;28;19920;-62
2022/04/28 02:02:33;;;;;;;;;;;;;;;11.90;100.00;98775.09;5080302;28;20724;-62
2022/04/28 02:04:59;;;;;;;;;;;;;;;11.88;100.00;98769.16;5081086;28;19952;-62
2022/04/28 02:07:26;;;;;;;;;;;;;;;11.97;100.00;98774.09;5078822;28;19947;-62
2022/04/28 02:09:52;;;;;;;;;;;;;;;11.93;100.00;98767.59;5077476;28;19925;-61
2022/04/28 02:12:20;;;;;;;;;;;;;;;11.93;100.00;98783.66;5078371;28;19992;-62
2022/04/28 02:14:46;;;;;;;;;;;;;;;11.77;100.00;98786.16;5080921;28;19998;-61
2022/04/28 02:17:12;;;;;;;;;;;;;;;11.78;100.00;98782.44;5080581;28;19980;-62
2022/04/28 02:19:39;;;;;;;;;;;;;;;11.79;100.00;98778.69;5077634;28;19952;-62
2022/04/28 02:22:05;;;;;;;;;;;;;;;11.79;100.00;98784.03;5077428;28;19931;-61
2022/04/28 02:24:31;;;;;;;;;;;;;;;11.72;100.00;98783.44;5080097;28;20004;-61
2022/04/28 02:26:58;;;;;;;;;;;;;;;11.31;100.00;98784.72;5080791;28;19979;-62
2022/04/28 02:29:25;;;;;;;;;;;;;;;11.33;100.00;98787.16;5078753;28;19988;-62
2022/04/28 02:31:52;;;;;;;;;;;;;;;11.22;100.00;98788.06;5077237;28;19980;-62
2022/04/28 02:34:18;;;;;;;;;;;;;;;11.25;100.00;98782.22;5078005;28;19924;-62
2022/04/28 02:36:45;;;;;;;;;;;;;;;11.25;100.00;98783.03;5080522;28;19925;-62
2022/04/28 02:39:12;;;;;;;;;;;;;;;11.32;100.00;98782.88;5080413;28;19999;-61
2022/04/28 02:41:39;;;;;;;;;;;;;;;11.42;100.00;98779.53;5077110;28;20470;-62
2022/04/28 02:44:06;;;;;;;;;;;;;;;11.51;100.00;98776.19;5077057;28;20644;-62
2022/04/28 02:46:34;;;;;;;;;;;;;;;11.57;100.00;98779.72;5079932;28;19929;-62
2022/04/28 02:49:00;;;;;;;;;;;;;;;11.52;100.00;98777.78;5080582;28;19963;-62
2022/04/28 02:51:27;;;;;;;;;;;;;;;11.49;100.00;98778.28;5078062;28;19988;-62
2022/04/28 02:53:53;;;;;;;;;;;;;;;11.44;100.00;98778.22;5076349;28;19925;-63
2022/04/28 02:56:19;;;;;;;;;;;;;;;11.44;100.00;98780.91;5077319;28;19932;-62
2022/04/28 02:58:46;;;;;;;;;;;;;;;11.45;100.00;98784.38;5080110;28;20016;-62
2022/04/28 03:01:12;;;;;;;;;;;;;;;11.52;100.00;98785.00;5095793;28;20019;-62
2022/04/28 03:03:40;;;;;;;;;;;;;;;11.53;100.00;98779.41;5076277;28;19988;-62
2022/04/28 03:11:34;;;;;;;;;;;;;;;10.98;100.00;98786.63;5079823;28;19979;-62
2022/04/28 03:14:00;;;;;;;;;;;;;;;10.74;100.00;98789.47;5077789;28;19924;-62
2022/04/28 03:16:27;;;;;;;;;;;;;;;10.64;100.00;98786.66;5060820;28;19984;-61
2022/04/28 03:18:54;;;;;;;;;;;;;;;10.62;100.00;98791.41;5079942;28;20569;-61
2022/04/28 03:21:21;;;;;;;;;;;;;;;10.27;100.00;98790.78;5078362;28;19988;-62
2022/04/28 03:23:48;;;;;;;;;;;;;;;10.16;100.00;98800.47;5076290;28;20408;-62
2022/04/28 03:26:14;;;;;;;;;;;;;;;10.35;100.00;98794.91;5076685;28;19925;-63
2022/04/28 03:28:40;;;;;;;;;;;;;;;10.12;100.00;98795.81;5061832;28;20536;-62
2022/04/28 03:31:08;;;;;;;;;;;;;;;9.91;100.00;98807.94;5079880;27;19931;-62
2022/04/28 03:33:35;;;;;;;;;;;;;;;9.99;100.00;98806.75;5076251;28;19924;-61
2022/04/28 03:36:50;;;;;;;;;;;;;;;10.22;100.00;98804.03;5076190;28;19921;-63
2022/04/28 03:38:49;;;;;;;;;;;;;;;10.31;100.00;98802.59;5069536;28;19924;-62
2022/04/28 03:41:15;;;;;;;;;;;;;;;10.57;100.00;98807.34;5076693;28;19925;-62
2022/04/28 03:43:41;;;;;;;;;;;;;;;10.74;100.00;98808.16;5080023;28;19931;-62
2022/04/28 03:46:08;;;;;;;;;;;;;;;10.93;100.00;98805.25;5076070;28;19963;-62
2022/04/28 03:48:34;;;;;;;;;;;;;;;11.01;100.00;98807.53;5079097;28;19928;-62
2022/04/28 03:51:00;;;;;;;;;;;;;;;11.00;100.00;98803.22;5079493;28;19931;-63
2022/04/28 03:53:28;;;;;;;;;;;;;;;11.01;100.00;98818.22;5077097;28;19920;-62
2022/04/28 03:55:54;;;;;;;;;;;;;;;10.98;100.00;98816.03;5075921;28;19931;-61
2022/04/28 03:58:20;;;;;;;;;;;;;;;10.86;100.00;98808.09;5077014;28;19928;-61
2022/04/28 04:00:49;;;;;;;;;;;;;;;10.94;100.00;98817.56;5079368;28;19947;-62
2022/04/28 04:03:15;;;;;;;;;;;;;;;11.02;100.00;98809.13;5078332;28;19925;-61
2022/04/28 04:05:42;;;;;;;;;;;;;;;10.94;100.00;98814.91;5075482;28;19925;-62
2022/04/28 04:08:08;;;;;;;;;;;;;;;10.91;100.00;98823.41;5075710;28;19925;-61
2022/04/28 04:10:35;;;;;;;;;;;;;;;10.81;100.00;98821.38;5078941;28;19950;-62
2022/04/28 04:13:02;;;;;;;;;;;;;;;10.80;100.00;98823.22;5078941;28;19924;-62
2022/04/28 04:15:28;;;;;;;;;;;;;;;10.92;100.00;98828.53;5076670;28;20000;-63
2022/04/28 04:17:54;;;;;;;;;;;;;;;10.96;100.00;98831.50;5075474;28;19925;-60
2022/04/28 04:20:21;;;;;;;;;;;;;;;10.86;100.00;98826.00;5076824;28;19987;-63
2022/04/28 04:22:47;;;;;;;;;;;;;;;10.94;100.00;98826.41;5079039;28;20152;-61
2022/04/28 04:25:13;;;;;;;;;;;;;;;10.97;100.00;98830.44;5078555;28;20023;-62
2022/04/28 04:27:41;;;;;;;;;;;;;;;10.98;100.00;98826.72;5075569;28;19988;-63
2022/04/28 04:32:52;;;;;;;;;;;;;;;10.91;100.00;98839.44;5069010;28;19936;-62
2022/04/28 04:35:19;;;;;;;;;;;;;;;10.48;100.00;98840.84;5076239;28;19968;-62
2022/04/28 04:37:45;;;;;;;;;;;;;;;10.64;100.00;98845.41;5078790;28;19925;-63
2022/04/28 04:40:12;;;;;;;;;;;;;;;10.67;100.00;98850.28;5078694;27;19984;-62
2022/04/28 04:42:38;;;;;;;;;;;;;;;10.57;100.00;98844.75;5075357;28;19954;-62
2022/04/28 04:45:07;;;;;;;;;;;;;;;10.29;100.00;98847.41;5078708;28;19946;-62
2022/04/28 04:47:34;;;;;;;;;;;;;;;10.48;100.00;98850.72;5075288;28;19996;-61
2022/04/28 04:50:00;;;;;;;;;;;;;;;10.30;100.00;98859.72;5075309;28;20732;-62
2022/04/28 04:52:26;;;;;;;;;;;;;;;10.54;100.00;98850.56;5077166;28;19924;-61
2022/04/28 04:54:53;;;;;;;;;;;;;;;10.68;100.00;98851.88;5078553;28;19924;-62
2022/04/28 04:57:19;;;;;;;;;;;;;;;10.76;100.00;98859.53;5077165;28;19983;-62
2022/04/28 04:59:45;;;;;;;;;;;;;;;10.90;100.00;98859.19;5075183;28;19996;-62
2022/04/28 05:02:13;;;;;;;;;;;;;;;10.94;100.00;98857.66;5074836;28;19925;-62
2022/04/28 05:04:39;;;;;;;;;;;;;;;10.93;100.00;98864.03;5078531;28;19925;-62
2022/04/28 05:07:06;;;;;;;;;;;;;;;10.93;100.00;98872.06;5078550;28;19992;-62
2022/04/28 05:09:32;;;;;;;;;;;;;;;10.99;100.00;98873.78;5075355;28;19952;-62
2022/04/28 05:11:59;;;;;;;;;;;;;;;10.92;100.00;98867.78;5074965;28;19967;-61
2022/04/28 05:14:26;;;;;;;;;;;;;;;10.83;100.00;98865.50;5076795;28;19984;-61
2022/04/28 05:16:53;;;;;;;;;;;;;;;10.69;100.00;98871.38;5078188;28;19971;-61
2022/04/28 05:19:20;;;;;;;;;;;;;;;10.75;100.00;98870.44;5079902;27;19924;-60
2022/04/28 05:21:47;;;;;;;;;;;;;;;10.84;100.00;98874.31;5078105;28;19931;-62
2022/04/28 05:24:13;;;;;;;;;;;;;;;10.71;100.00;98880.78;5078476;28;19931;-60
2022/04/28 05:26:39;;;;;;;;;;;;;;;10.76;100.00;98875.53;5081699;27;19924;-61
2022/04/28 05:29:06;;;;;;;;;;;;;;;10.64;100.00;98882.00;5081536;28;19927;-62
2022/04/28 05:31:32;;;;;;;;;;;;;;;10.41;100.00;98888.22;5078455;28;19988;-61
2022/04/28 05:33:58;;;;;;;;;;;;;;;10.29;100.00;98896.28;5078117;28;19992;-62
2022/04/28 05:36:28;;;;;;;;;;;;;;;10.38;100.00;98891.38;5061919;28;19984;-63
2022/04/28 05:38:54;;;;;;;;;;;;;;;10.00;100.00;98897.25;5081341;28;19925;-62
2022/04/28 05:41:21;;;;;;;;;;;;;;;10.15;100.00;98900.25;5079797;28;19920;-62
2022/04/28 05:46:31;;;;;;;;;;;;;;;10.46;100.00;98901.69;5080600;28;19951;-61
2022/04/28 05:48:58;;;;;;;;;;;;;;;10.62;100.00;98898.25;5081380;28;19963;-62
2022/04/28 05:51:24;;;;;;;;;;;;;;;10.49;100.00;98906.53;5079153;28;19984;-61
2022/04/28 05:53:52;;;;;;;;;;;;;;;10.57;100.00;98902.69;5077675;28;19944;-61
2022/04/28 05:56:18;;;;;;;;;;;;;;;10.68;100.00;98907.16;5078387;28;19925;-62
2022/04/28 05:58:44;;;;;;;;;;;;;;;10.74;100.00;98909.69;5080912;28;19935;-62
2022/04/28 06:01:10;;;;;;;;;;;;;;;10.59;100.00;98909.41;5080946;28;19927;-62
2022/04/28 06:03:37;;;;;;;;;;;;;;;10.65;100.00;98905.78;5068895;28;19920;-61
2022/04/28 06:06:03;;;;;;;;;;;;;;;10.71;100.00;98899.47;5077562;28;19925;-62
2022/04/28 06:08:29;;;;;;;;;;;;;;;10.83;100.00;98907.47;5079791;28;19935;-62
2022/04/28 06:10:58;;;;;;;;;;;;;;;11.14;100.00;98909.59;5081049;27;19931;-62
2022/04/28 06:13:24;;;;;;;;;;;;;;;11.12;100.00;98910.88;5078889;28;19924;-61
2022/04/28 06:15:51;;;;;;;;;;;;;;;11.30;100.00;98919.50;5077399;28;19973;-63
2022/04/28 06:18:18;;;;;;;;;;;;;;;11.61;100.00;98915.41;5078229;28;19920;-61
2022/04/28 06:20:44;;;;;;;;;;;;;;;11.90;100.00;98916.16;5080844;28;19925;-61
2022/04/28 06:23:11;;;;;;;;;;;;;;;11.87;100.00;98917.44;5080802;28;19930;-62
2022/04/28 06:25:38;;;;;;;;;;;;;;;11.69;100.00;98927.59;5051640;28;19925;-61
2022/04/28 06:28:06;;;;;;;;;;;;;;;11.56;100.00;98927.91;5077347;28;19932;-62
2022/04/28 06:30:32;;;;;;;;;;;;;;;11.42;100.00;98938.13;5079857;28;19932;-62
2022/04/28 06:32:59;;;;;;;;;;;;;;;11.45;100.00;98928.81;5080622;28;19931;-62
2022/04/28 06:35:25;;;;;;;;;;;;;;;11.43;100.00;98928.25;5078599;28;19987;-62
2022/04/28 06:37:52;;;;;;;;;;;;;;;11.28;100.00;98928.81;5077121;28;19931;-62
2022/04/28 06:40:18;;;;;;;;;;;;;;;11.33;100.00;98928.88;5077822;28;19984;-62
2022/04/28 06:42:45;;;;;;;;;;;;;;;11.37;100.00;98930.03;5080466;28;19986;-64
2022/04/28 06:45:13;;;;;;;;;;;;;;;11.18;100.00;98925.97;5080419;28;19920;-62
2022/04/28 06:47:40;;;;;;;;;;;;;;;11.66;100.00;98926.22;5076972;28;19925;-62
2022/04/28 06:50:06;;;;;;;;;;;;;;;11.44;100.00;98927.19;5077050;28;20483;-62
2022/04/28 06:52:35;;;;;;;;;;;;;;;11.39;100.00;98926.06;5079773;28;20434;-63
2022/04/28 06:55:01;;;;;;;;;;;;;;;11.52;100.00;98934.81;5080320;28;19927;-63
2022/04/28 06:57:27;;;;;;;;;;;;;;;12.07;100.00;98932.19;5077624;28;19929;-61
2022/04/28 06:59:53;;;;;;;;;;;;;;;11.94;100.00;98932.53;5076519;28;19924;-62
2022/04/28 07:02:21;;;;;;;;;;;;;;;11.85;100.00;98935.59;5077206;28;19925;-62
2022/04/28 07:04:48;;;;;;;;;;;;;;;12.47;100.00;98932.69;5079788;28;19945;-62
2022/04/28 07:07:14;;;;;;;;;;;;;;;12.55;100.00;98932.25;5079153;28;20360;-62
2022/04/28 07:09:40;;;;;;;;;;;;;;;12.99;100.00;98935.66;5076204;28;19925;-62
2022/04/28 07:12:07;;;;;;;;;;;;;;;12.78;100.00;98937.31;5076079;28;19984;-62
2022/04/28 07:14:34;;;;;;;;;;;;;;;13.05;100.00;98939.19;5079349;28;19995;-61
2022/04/28 07:17:00;;;;;;;;;;;;;;;13.46;100.00;98947.38;5079598;28;19925;-62
2022/04/28 07:19:28;;;;;;;;;;;;;;;13.77;100.00;98936.88;5077509;27;19927;-62
2022/04/28 07:21:54;;;;;;;;;;;;;;;13.43;100.00;98939.06;5076227;28;19932;-62
2022/04/28 07:24:20;;;;;;;;;;;;;;;13.49;100.00;98944.19;5077120;28;20005;-62
2022/04/28 07:26:46;;;;;;;;;;;;;;;12.99;100.00;98944.53;5079523;28;19935;-62
2022/04/28 07:29:13;;;;;;;;;;;;;;;13.02;100.00;98945.88;5079207;28;19984;-63
2022/04/28 07:31:39;;;;;;;;;;;;;;;13.51;100.00;98952.78;5076023;28;19931;-62
2022/04/28 07:34:05;;;;;;;;;;;;;;;13.56;100.00;98943.16;5075927;28;20657;-61
2022/04/28 07:36:33;;;;;;;;;;;;;;;13.82;100.00;98936.91;5078511;28;19944;-62
2022/04/28 07:38:59;;;;;;;;;;;;;;;13.76;100.00;98943.31;5079208;28;19924;-61
2022/04/28 07:41:26;;;;;;;;;;;;;;;13.70;100.00;98939.78;5076418;28;20032;-62
2022/04/28 07:43:52;;;;;;;;;;;;;;;13.64;100.00;98951.56;5075621;28;19928;-61
2022/04/28 07:46:18;;;;;;;;;;;;;;;13.79;100.00;98942.78;5076729;28;19925;-62
2022/04/28 07:48:44;;;;;;;;;;;;;;;13.89;100.00;98940.19;5079239;28;19935;-63
2022/04/28 07:51:11;;;;;;;;;;;;;;;13.68;100.00;98941.91;5079163;28;19926;-62
2022/04/28 07:53:38;;;;;;;;;;;;;;;13.77;100.00;98951.09;5067603;28;19933;-61
2022/04/28 07:56:12;;;;;;;;;;;;;;;13.87;100.00;98939.63;5075675;28;19972;-61
2022/04/28 07:58:39;;;;;;;;;;;;;;;13.96;100.00;98944.25;5067711;28;19931;-62
2022/04/28 08:01:06;;;;;;;;;;;;;;;13.84;100.00;98940.94;5075578;28;19924;-63
2022/04/28 08:03:32;;;;;;;;;;;;;;;13.75;100.00;98945.19;5078066;28;19928;-62
2022/04/28 08:05:58;;;;;;;;;;;;;;;13.79;100.00;98948.16;5079008;28;20023;-62
2022/04/28 08:08:25;;;;;;;;;;;;;;;13.94;100.00;98945.56;5076765;28;19924;-62
2022/04/28 08:10:53;;;;;;;;;;;;;;;13.93;100.00;98944.75;5075354;28;19948;-62
2022/04/28 08:13:20;;;;;;;;;;;;;;;13.93;100.00;98947.44;5079835;28;19924;-62
2022/04/28 08:15:46;;;;;;;;;;;;;;;14.13;100.00;98944.06;5075357;28;19925;-63
2022/04/28 08:18:13;;;;;;;;;;;;;;;14.16;100.00;98948.94;5075502;28;19931;-62
2022/04/28 08:20:40;;;;;;;;;;;;;;;13.78;100.00;98949.22;5078634;28;19924;-62
2022/04/28 08:23:06;;;;;;;;;;;;;;;13.71;100.00;98954.81;5078886;27;20087;-62
2022/04/28 08:25:32;;;;;;;;;;;;;;;14.05;100.00;98945.38;5075866;28;19924;-62
2022/04/28 08:28:00;;;;;;;;;;;;;;;14.05;100.00;98948.06;5075303;28;19925;-66
2022/04/28 08:30:26;;;;;;;;;;;;;;;14.17;100.00;98957.81;5077209;28;19935;-62
2022/04/28 08:32:53;;;;;;;;;;;;;;;14.62;100.00;98944.59;5078643;28;19996;-62
2022/04/28 08:35:19;;;;;;;;;;;;;;;14.56;100.00;98951.84;5077578;28;19924;-63
2022/04/28 08:37:45;;;;;;;;;;;;;;;14.48;99.79;98955.00;5057504;28;19999;-62
2022/04/28 08:40:12;;;;;;;;;;;;;;;14.50;100.00;98954.75;5075321;28;19921;-62
2022/04/28 08:42:39;;;;;;;;;;;;;;;14.75;100.00;98957.56;5078421;28;19924;-63
2022/04/28 08:45:07;;;;;;;;;;;;;;;14.75;100.00;98952.16;5078592;28;19924;-63
2022/04/28 08:47:33;;;;;;;;;;;;;;;14.61;100.00;98956.41;5075288;28;19967;-64
2022/04/28 08:50:00;;;;;;;;;;;;;;;14.53;100.00;98962.31;5075057;28;19925;-62
2022/04/28 08:52:26;;;;;;;;;;;;;;;14.33;100.00;98954.13;5077023;28;19968;-62
2022/04/28 08:54:53;;;;;;;;;;;;;;;14.55;100.00;98962.84;5082169;28;19925;-62
2022/04/28 08:57:21;;;;;;;;;;;;;;;14.54;100.00;98962.03;5080740;28;19924;-61
2022/04/28 08:59:50;;;;;;;;;;;;;;;14.37;100.00;98965.97;5078490;28;19924;-62
2022/04/28 09:02:22;;;;;;;;;;;;;;;14.50;100.00;98955.56;5061143;28;19920;-62
2022/04/28 09:04:49;;;;;;;;;;;;;;;14.59;100.00;98966.63;5082041;27;19924;-62
2022/04/28 09:07:15;;;;;;;;;;;;;;;14.70;100.00;98962.88;5081308;28;19987;-61
2022/04/28 09:09:41;;;;;;;;;;;;;;;14.69;100.00;98965.84;5078266;28;20000;-63
2022/04/28 09:12:09;;;;;;;;;;;;;;;14.51;100.00;98956.38;5078262;28;19991;-63
2022/04/28 09:14:40;;;;;;;;;;;;;;;15.18;100.00;98955.47;5081352;28;19956;-62
2022/04/28 09:17:07;;;;;;;;;;;;;;;15.82;93.81;98956.59;5081790;28;20499;-62
2022/04/28 09:19:35;;;;;;;;;;;;;;;16.06;91.75;98957.63;5078566;28;19925;-63
2022/04/28 09:22:05;;;;;;;;;;;;;;;15.93;91.16;98952.81;5078211;28;20613;-62
2022/04/28 09:24:31;;;;;;;;;;;;;;;15.80;93.21;98964.16;5080677;28;19921;-61
2022/04/28 09:26:58;;;;;;;;;;;;;;;15.65;93.56;98966.84;5081454;28;19983;-62
2022/04/28 09:29:26;;;;;;;;;;;;;;;15.52;92.96;98960.13;5079454;28;19952;-61
2022/04/28 09:31:53;;;;;;;;;;;;;;;15.50;93.53;98956.09;5078104;28;19932;-62
2022/04/28 09:34:21;;;;;;;;;;;;;;;15.37;95.12;98954.72;5079025;28;19968;-61
2022/04/28 09:36:49;;;;;;;;;;;;;;;15.52;93.39;98952.06;5081413;28;19963;-62
2022/04/28 09:42:29;;;;;;;;;;;;;;;15.85;83.95;98950.66;5080188;28;19924;-62
2022/04/28 09:44:49;;;;;;;;;;;;;;;15.87;81.99;98943.13;5070933;28;19942;-61
2022/04/28 09:47:15;;;;;;;;;;;;;;;15.79;81.22;98943.66;5078069;28;19964;-63
2022/04/28 09:49:42;;;;;;;;;;;;;;;15.69;82.85;98940.97;5081237;28;19921;-62
2022/04/28 09:52:10;;;;;;;;;;;;;;;15.50;84.50;98948.00;5081243;28;19931;-62
2022/04/28 09:54:38;;;;;;;;;;;;;;;15.87;77.50;98936.94;5069608;28;19925;-63
2022/04/28 09:57:05;;;;;;;;;;;;;;;16.23;78.93;98948.44;5077741;28;19946;-61
2022/04/28 09:59:31;;;;;;;;;;;;;;;16.60;77.54;98940.78;5080008;28;19997;-61
2022/04/28 10:01:59;;;;;;;;;;;;;;;16.26;69.72;98943.31;5080780;27;20488;-63
2022/04/28 10:04:26;;;;;;;;;;;;;;;16.27;58.43;98941.41;5078313;28;20012;-61
2022/04/28 10:06:53;;;;;;;;;;;;;;;16.14;60.39;98945.50;5077492;28;19925;-62
2022/04/28 10:09:21;;;;;;;;;;;;;;;16.51;71.62;98937.81;5078294;28;19988;-61
2022/04/28 10:11:48;;;;;;;;;;;;;;;16.57;58.09;98935.94;5080500;28;19924;-61
2022/04/28 10:14:14;;;;;;;;;;;;;;;16.62;58.03;98939.41;5077948;28;19925;-62
2022/04/28 10:16:43;;;;;;;;;;;;;;;16.26;55.87;98945.19;5080767;28;19987;-62
2022/04/28 10:19:11;;;;;;;;;;;;;;;16.00;57.76;98947.16;5080833;28;19931;-62
2022/04/28 10:21:41;;;;;;;;;;;;;;;15.99;58.94;98940.16;5068604;28;19996;-61
2022/04/28 10:32:51;;;;;;;;;;;;;;;16.57;64.41;98938.63;5040896;28;19925;-62
2022/04/28 10:35:31;;;;;;;;;;;;;;;17.07;66.64;98940.25;5077838;28;19940;-65
2022/04/28 10:38:04;;;;;;;;;;;;;;;17.62;67.27;98941.75;5080322;28;19928;-64
2022/04/28 10:40:36;;;;;;;;;;;;;;;17.91;62.99;98931.75;5077639;28;20559;-65
2022/04/28 10:43:04;;;;;;;;;;;;;;;18.13;65.79;98932.06;5080155;28;19928;-63
2022/04/28 10:45:38;;;;;;;;;;;;;;;17.75;61.68;98935.69;5059853;28;19996;-62
2022/04/28 10:48:18;;;;;;;;;;;;;;;18.07;63.59;98932.41;5076780;28;19951;-62
2022/04/28 10:50:58;;;;;;;;;;;;;;;18.02;59.82;98929.75;5085453;27;19925;-62
2022/04/28 10:53:25;;;;;;;;;;;;;;;17.55;56.27;98925.06;5078479;28;19925;-64
2022/04/28 10:55:52;;;;;;;;;;;;;;;17.49;49.75;98924.28;5080048;28;19927;-62
2022/04/28 10:58:19;;;;;;;;;;;;;;;17.87;58.98;98922.59;5079244;28;20054;-63
2022/04/28 11:00:51;;;;;;;;;;;;;;;18.01;51.70;98928.16;5076318;28;20020;-64
2022/04/28 11:03:42;;;;;;;;;;;;;;;18.05;45.90;98924.56;5077069;28;19929;-62
2022/04/28 11:06:11;;;;;;;;;;;;;;;18.06;48.61;98920.78;5080019;28;19997;-62
2022/04/28 11:08:37;;;;;;;;;;;;;;;17.69;45.09;98916.03;5068270;28;19989;-62
2022/04/28 11:11:12;;;;;;;;;;;;;;;17.69;45.06;98920.63;5076593;28;19950;-62
2022/04/28 11:13:45;;;;;;;;;;;;;;;17.70;43.87;98925.72;5090667;27;21981;-62
2022/04/28 11:16:11;;;;;;;;;;;;;;;17.57;43.64;98923.72;5074465;28;19929;-61
2022/04/28 11:18:38;;;;;;;;;;;;;;;17.17;46.17;98927.50;5068117;28;19929;-63
2022/04/28 11:21:05;;;;;;;;;;;;;;;17.13;45.87;98921.03;5075190;28;19924;-62
2022/04/28 11:23:35;;;;;;;;;;;;;;;17.15;47.20;98926.97;5123085;27;19923;-64
2022/04/28 11:26:02;;;;;;;;;;;;;;;16.91;47.68;98936.84;5072484;28;19956;-63
2022/04/28 11:28:29;;;;;;;;;;;;;;;16.86;47.97;98936.06;5082156;27;19925;-63
2022/04/28 11:30:57;;;;;;;;;;;;;;;17.00;46.36;98929.75;5088312;27;19931;-63
2022/04/28 11:33:23;;;;;;;;;;;;;;;16.91;47.72;98933.34;5089084;27;19950;-63
2022/04/28 11:35:49;;;;;;;;;;;;;;;16.88;48.80;98937.41;5081194;27;19921;-62
2022/04/28 11:38:23;;;;;;;;;;;;;;;16.82;49.40;98941.22;5065764;28;19925;-62
2022/04/28 11:40:57;;;;;;;;;;;;;;;16.86;49.97;98941.47;5069297;28;19928;-62
2022/04/28 11:43:28;;;;;;;;;;;;;;;16.88;46.59;98937.41;5116492;27;19930;-62
2022/04/28 11:45:56;;;;;;;;;;;;;;;17.00;46.66;98934.34;5061706;28;19924;-62
2022/04/28 11:48:23;;;;;;;;;;;;;;;17.03;45.48;98918.41;5080110;27;19929;-62
2022/04/28 11:50:50;;;;;;;;;;;;;;;17.16;46.34;98915.09;5074737;28;19948;-62
2022/04/28 11:53:16;;;;;;;;;;;;;;;17.32;49.16;98928.47;5081172;27;19991;-62
2022/04/28 11:55:43;;;;;;;;;;;;;;;17.49;50.35;98924.28;5079937;27;19929;-62
2022/04/28 11:58:09;;;;;;;;;;;;;;;17.52;47.51;98926.41;5054753;28;19936;-63
2022/04/28 12:00:37;;;;;;;;;;;;;;;17.39;47.99;98924.38;5105965;27;19935;-62
2022/04/28 12:03:05;;;;;;;;;;;;;;;17.45;49.48;98927.84;5073707;28;19973;-62
2022/04/28 12:05:32;;;;;;;;;;;;;;;17.66;45.93;98926.59;5056069;28;19928;-62
2022/04/28 12:07:59;;;;;;;;;;;;;;;17.52;48.33;98920.19;5065611;28;19928;-63
2022/04/28 12:15:55;;;;;;;;;;;;;;;17.24;47.73;98921.75;5051647;28;20068;-60
2022/04/28 12:21:15;;;;;;;;;;;;;;;17.00;48.51;98921.66;5078456;28;19935;-60
2022/04/28 12:23:43;;;;;;;;;;;;;;;16.90;47.21;98924.41;5067481;28;19928;-59
2022/04/28 12:26:10;;;;;;;;;;;;;;;16.88;46.88;98921.22;5075115;28;19988;-61
2022/04/28 12:28:38;;;;;;;;;;;;;;;16.95;48.08;98931.69;5064057;28;19929;-61
2022/04/28 12:31:04;;;;;;;;;;;;;;;16.92;49.92;98927.66;5082059;28;19979;-60
2022/04/28 12:33:34;;;;;;;;;;;;;;;17.16;47.65;98917.78;5079341;28;19932;-60
2022/04/28 12:36:01;;;;;;;;;;;;;;;17.29;45.59;98916.34;5078450;28;19931;-59
2022/04/28 12:38:28;;;;;;;;;;;;;;;17.39;46.80;98915.47;5080532;28;19929;-59
2022/04/28 12:40:55;;;;;;;;;;;;;;;17.48;48.89;98911.06;5081711;28;19970;-60
2022/04/28 12:43:36;;;;;;;;;;;;;;;17.71;44.71;98900.34;5099843;27;19968;-60
2022/04/28 12:46:03;;;;;;;;;;;;;;;17.80;45.05;98901.31;5078459;27;19924;-61
2022/04/28 12:48:30;;;;;;;;;;;;;;;18.04;44.42;98895.16;5080488;28;19955;-60
2022/04/28 12:51:12;;;;;;;;;;;;;;;17.71;48.39;98894.13;5081575;28;19953;-60
2022/04/28 12:53:39;;;;;;;;;;;;;;;17.61;49.02;98892.31;5052114;28;19956;-61
2022/04/28 12:56:07;;;;;;;;;;;;;;;17.93;45.41;98896.31;5078018;28;19988;-60
2022/04/28 12:58:36;;;;;;;;;;;;;;;17.98;43.26;98897.06;5081123;28;19924;-60
2022/04/28 13:01:02;;;;;;;;;;;;;;;18.10;43.77;98897.50;5081499;28;20012;-60
2022/04/28 13:03:29;;;;;;;;;;;;;;;17.93;45.26;98893.63;5078766;28;19991;-60
2022/04/28 13:05:55;;;;;;;;;;;;;;;18.13;42.04;98888.81;5078198;28;19925;-60
2022/04/28 13:08:23;;;;;;;;;;;;;;;18.05;42.86;98889.44;5079252;28;19931;-60
2022/04/28 13:10:50;;;;;;;;;;;;;;;17.51;46.15;98889.69;5081283;28;19998;-60
2022/04/28 13:13:16;;;;;;;;;;;;;;;17.74;44.89;98893.53;5100105;27;19925;-60
2022/04/28 13:15:42;;;;;;;;;;;;;;;17.99;42.51;98882.47;5077806;28;19925;-59
2022/04/28 13:18:09;;;;;;;;;;;;;;;17.65;44.53;98887.16;5077864;28;19971;-60